Time;durP1;ratioP1;P1;durP2;ratioP2;P2;SDS_P1;SDS_P2;PMS_P1;PMS_P2;Temp;Humidity;BMP_temperature;BMP_pressure;BME280_temperature;BME280_humidity;BME280_pressure;Samples;Min_cycle;Max_cycle;Signal;HPM_P1;HPM_P2
2023/09/23 00:00:02;;;;;;;1.73;0.87;;;;;;;15.57;97.63;97669.97;5163985;23;20919;-89
2023/09/23 00:02:13;;;;;;;1.40;0.70;;;;;;;15.56;98.10;97684.91;5161990;23;20587;-89
2023/09/23 00:04:18;;;;;;;1.70;0.90;;;;;;;15.56;97.27;97684.09;5137563;23;21154;-89
2023/09/23 00:06:22;;;;;;;2.40;1.20;;;;;;;15.55;97.59;97701.66;5163459;23;20889;-89
2023/09/23 00:08:25;;;;;;;1.80;0.93;;;;;;;15.51;96.99;97698.63;5138497;23;21168;-89
2023/09/23 00:10:28;;;;;;;1.80;1.10;;;;;;;15.50;97.68;97705.72;5164141;22;20930;-89
2023/09/23 00:12:32;;;;;;;1.90;1.00;;;;;;;15.49;97.68;97704.03;5163078;23;20557;-89
2023/09/23 00:14:35;;;;;;;2.90;1.07;;;;;;;15.47;96.26;97706.00;5163245;23;20584;-88
2023/09/23 00:16:40;;;;;;;1.43;0.90;;;;;;;15.47;98.42;97707.78;5137596;23;20592;-88
2023/09/23 00:18:43;;;;;;;1.73;0.97;;;;;;;15.44;97.24;97701.03;5136613;23;20573;-89
2023/09/23 00:20:46;;;;;;;1.70;0.87;;;;;;;15.42;97.44;97705.56;5137254;23;20678;-90
2023/09/23 00:22:54;;;;;;;1.57;0.80;;;;;;;15.40;97.35;97698.81;5162250;23;20665;-89
2023/09/23 00:24:58;;;;;;;2.70;1.03;;;;;;;15.36;96.60;97700.91;5164396;22;20575;-89
2023/09/23 00:27:02;;;;;;;1.50;0.70;;;;;;;15.35;96.02;97703.66;5164620;23;21191;-89
2023/09/23 00:29:06;;;;;;;1.90;0.80;;;;;;;15.28;94.71;97697.34;5163376;23;20563;-89
2023/09/23 00:31:14;;;;;;;1.33;0.70;;;;;;;15.23;94.35;97702.19;5162913;23;20602;-90
2023/09/23 00:33:19;;;;;;;2.70;0.90;;;;;;;15.21;96.08;97696.25;5163282;23;20571;-89
2023/09/23 00:35:23;;;;;;;2.70;1.00;;;;;;;15.19;94.96;97699.00;5136689;23;21180;-90
2023/09/23 00:37:26;;;;;;;1.77;0.80;;;;;;;15.19;95.16;97699.00;5162273;23;20691;-88
2023/09/23 00:39:29;;;;;;;1.63;0.80;;;;;;;15.20;95.13;97703.31;5162357;23;20982;-89
2023/09/23 00:41:32;;;;;;;1.60;0.70;;;;;;;15.18;96.97;97702.63;5137803;23;20965;-88
2023/09/23 00:43:36;;;;;;;2.10;0.93;;;;;;;15.18;96.02;97702.63;5163151;23;20559;-89
2023/09/23 00:45:44;;;;;;;2.00;0.70;;;;;;;15.18;96.10;97691.28;5137548;23;20580;-89
2023/09/23 00:47:48;;;;;;;3.17;1.00;;;;;;;15.14;96.53;97698.59;5164501;22;20583;-88
2023/09/23 00:49:52;;;;;;;1.40;0.70;;;;;;;15.13;95.65;97689.03;5163063;23;20564;-90
2023/09/23 00:51:56;;;;;;;2.17;1.00;;;;;;;15.10;95.47;97693.75;5162673;23;20642;-89
2023/09/23 00:54:01;;;;;;;4.30;1.00;;;;;;;15.08;96.32;97691.28;5135856;23;20995;-89
2023/09/23 00:56:05;;;;;;;1.70;1.30;;;;;;;15.08;97.20;97693.09;5138336;23;20577;-89
2023/09/23 00:58:08;;;;;;;1.40;0.80;;;;;;;15.07;97.38;97683.53;5137513;23;21204;-89
2023/09/23 01:00:23;;;;;;;2.23;1.03;;;;;;;15.05;96.13;97682.84;5160890;23;20962;-89
2023/09/23 01:02:26;;;;;;;3.03;1.30;;;;;;;15.03;97.34;97687.41;5162012;23;20647;-89
2023/09/23 01:04:30;;;;;;;1.93;1.00;;;;;;;15.01;96.25;97684.09;5137701;23;20626;-89
2023/09/23 01:06:34;;;;;;;2.60;1.23;;;;;;;14.98;96.04;97680.94;5138359;23;20607;-89
2023/09/23 01:08:38;;;;;;;2.57;1.20;;;;;;;14.95;96.37;97687.28;5162501;23;20584;-91
2023/09/23 01:10:43;;;;;;;1.70;1.10;;;;;;;14.92;96.85;97684.94;5160533;23;20576;-89
2023/09/23 01:12:47;;;;;;;1.40;0.83;;;;;;;14.88;97.48;97675.69;5136160;23;20622;-90
2023/09/23 01:14:51;;;;;;;2.03;1.23;;;;;;;14.88;96.99;97680.94;5136683;23;21001;-89
2023/09/23 01:16:57;;;;;;;1.57;0.97;;;;;;;14.85;97.35;97683.84;5162707;23;20976;-90
2023/09/23 01:19:09;;;;;;;2.53;1.40;;;;;;;14.83;96.81;97693.66;5171601;23;20586;-93
2023/09/23 01:24:30;;;;;;;1.80;1.03;;;;;;;14.78;96.93;97700.31;5110596;23;20607;-93
2023/09/23 01:27:18;;;;;;;1.63;1.10;;;;;;;14.68;96.34;97689.81;5186174;23;20552;-93
2023/09/23 01:38:42;;;;;;;1.90;1.20;;;;;;;14.43;97.02;97728.91;5116626;23;20589;-95
2023/09/23 02:09:26;;;;;;;2.43;1.10;;;;;;;14.13;97.60;97733.41;5108523;23;20597;-96
2023/09/23 02:12:01;;;;;;;1.50;0.87;;;;;;;14.12;96.71;97749.28;5108109;23;20692;-96
2023/09/23 02:14:31;;;;;;;2.27;1.00;;;;;;;14.11;97.18;97751.09;5060729;23;20619;-96
2023/09/23 02:17:07;;;;;;;1.80;0.90;;;;;;;14.10;97.33;97767.78;5133333;23;20624;-94
2023/09/23 02:19:38;;;;;;;1.93;1.10;;;;;;;14.15;97.15;97773.47;5107827;23;21001;-95
2023/09/23 02:27:14;;;;;;;2.13;1.10;;;;;;;14.07;96.89;97762.81;5182275;23;20593;-94
2023/09/23 02:29:27;;;;;;;1.73;1.00;;;;;;;14.09;97.30;97775.78;5147574;23;21179;-88
2023/09/23 02:31:31;;;;;;;2.13;1.00;;;;;;;14.06;97.98;97769.03;5162881;23;20586;-89
2023/09/23 02:33:34;;;;;;;2.50;0.83;;;;;;;14.08;97.39;97779.38;5163739;23;20558;-89
2023/09/23 02:35:36;;;;;;;1.60;1.00;;;;;;;14.07;98.18;97794.28;5139210;23;20590;-88
2023/09/23 02:37:40;;;;;;;1.60;0.87;;;;;;;14.01;98.21;97789.56;5164956;22;20574;-90
2023/09/23 02:39:45;;;;;;;1.50;1.00;;;;;;;13.96;98.06;97794.34;5138540;23;20617;-90
2023/09/23 02:41:49;;;;;;;1.80;1.20;;;;;;;13.93;97.82;97796.41;5138611;23;21133;-89
2023/09/23 02:43:53;;;;;;;1.40;0.90;;;;;;;13.90;97.59;97797.50;5162993;23;20598;-89
2023/09/23 02:45:57;;;;;;;2.40;0.97;;;;;;;13.92;98.12;97807.84;5162235;23;20567;-88
2023/09/23 02:48:00;;;;;;;1.50;0.90;;;;;;;13.90;98.81;97801.91;5138254;23;20584;-89
2023/09/23 02:50:03;;;;;;;1.53;1.03;;;;;;;13.92;97.79;97813.09;5164314;23;20585;-88
2023/09/23 02:52:14;;;;;;;1.70;1.00;;;;;;;13.93;97.66;97806.91;5144419;23;20606;-95
2023/09/23 02:55:14;;;;;;;1.77;1.07;;;;;;;13.91;97.76;97798.34;5157182;23;20629;-93
2023/09/23 03:03:40;;;;;;;2.70;1.00;;;;;;;13.82;97.67;97807.00;5106474;23;20661;-94
2023/09/23 03:17:21;;;;;;;1.67;1.00;;;;;;;13.53;97.82;97834.00;5111326;23;20588;-94
2023/09/23 03:28:49;;;;;;;3.60;1.27;;;;;;;13.34;97.71;97839.97;5130748;23;20587;-92
2023/09/23 03:34:30;;;;;;;1.63;1.10;;;;;;;13.30;98.97;97838.53;5101676;23;20571;-96
2023/09/23 03:43:57;;;;;;;2.47;1.00;;;;;;;13.20;97.74;97850.75;5173464;22;20625;-95
2023/09/23 03:50:35;;;;;;;2.50;1.10;;;;;;;13.07;97.74;97870.22;5183955;23;20930;-95
2023/09/23 03:53:28;;;;;;;1.53;1.00;;;;;;;13.08;97.46;97864.03;5176246;22;20617;-94
2023/09/23 04:07:05;;;;;;;1.90;1.03;;;;;;;12.94;98.13;97861.69;5186654;23;20580;-94
2023/09/23 04:14:18;;;;;;;2.27;1.20;;;;;;;12.87;97.30;97867.53;5183550;22;20697;-93
2023/09/23 04:20:17;;;;;;;2.80;1.40;;;;;;;12.75;97.62;97865.91;5182137;23;20581;-94
2023/09/23 04:22:36;;;;;;;1.97;1.23;;;;;;;12.71;97.06;97867.09;5181453;23;20598;-96
2023/09/23 04:34:38;;;;;;;2.70;1.10;;;;;;;12.58;99.03;97871.63;5171259;23;20580;-95
2023/09/23 04:50:24;;;;;;;2.07;1.40;;;;;;;12.28;99.30;97881.94;5131312;22;1280017;-87
2023/09/23 04:52:30;;;;;;;2.00;1.13;;;;;;;12.32;98.49;97890.34;5144393;23;20179;-87
2023/09/23 04:54:33;;;;;;;2.60;1.40;;;;;;;12.34;99.75;97888.44;5119363;23;20648;-85
2023/09/23 04:56:36;;;;;;;2.67;1.17;;;;;;;12.33;98.26;97895.47;5146656;23;20553;-86
2023/09/23 04:58:40;;;;;;;1.87;1.40;;;;;;;12.36;99.50;97891.78;5145125;23;21068;-87
2023/09/23 05:00:43;;;;;;;3.00;1.40;;;;;;;12.34;99.47;97898.91;5145315;23;20678;-87
2023/09/23 05:02:47;;;;;;;2.90;1.20;;;;;;;12.38;97.94;97900.34;5144130;23;20921;-87
2023/09/23 05:04:53;;;;;;;3.40;1.57;;;;;;;12.39;97.94;97900.22;5106630;23;20616;-89
2023/09/23 05:07:00;;;;;;;2.80;1.80;;;;;;;12.44;99.47;97897.25;5120830;23;20588;-90
2023/09/23 05:09:04;;;;;;;4.37;1.97;;;;;;;12.42;98.92;97902.59;5094819;23;20638;-90
2023/09/23 05:11:11;;;;;;;3.20;1.83;;;;;;;12.46;99.05;97909.25;5119255;23;20574;-89
2023/09/23 05:13:17;;;;;;;3.20;2.23;;;;;;;12.50;100.00;97912.44;5094963;23;21144;-89
2023/09/23 05:15:21;;;;;;;5.47;2.20;;;;;;;12.54;98.34;97924.31;5095079;23;20913;-89
2023/09/23 05:17:27;;;;;;;3.63;2.00;;;;;;;12.55;99.05;97926.00;5094673;23;20588;-90
2023/09/23 05:19:31;;;;;;;2.43;1.67;;;;;;;12.57;98.98;97934.53;5119278;23;20839;-90
2023/09/23 05:21:35;;;;;;;4.70;1.87;;;;;;;12.57;97.67;97934.53;5117888;23;20589;-89
2023/09/23 05:23:41;;;;;;;2.43;1.70;;;;;;;12.56;97.49;97938.94;5118326;23;20590;-90
2023/09/23 05:25:45;;;;;;;2.00;1.40;;;;;;;12.57;97.48;97942.38;5095008;23;20592;-89
2023/09/23 05:27:48;;;;;;;2.10;1.70;;;;;;;12.55;98.38;97941.69;5093068;23;20589;-88
2023/09/23 05:29:53;;;;;;;2.73;1.50;;;;;;;12.62;96.85;97948.13;5094779;23;20661;-89
2023/09/23 05:31:57;;;;;;;3.50;1.70;;;;;;;12.69;97.03;97953.56;5094579;23;20635;-89
2023/09/23 05:34:00;;;;;;;3.37;1.80;;;;;;;12.81;97.82;97950.00;5095110;23;20963;-89
2023/09/23 05:36:04;;;;;;;3.60;1.90;;;;;;;12.92;97.44;97947.38;5093828;23;20591;-90
2023/09/23 05:38:09;;;;;;;3.50;2.43;;;;;;;13.02;97.74;97956.16;5118450;23;20620;-90
2023/09/23 05:40:27;;;;;;;3.07;2.13;;;;;;;13.12;97.33;97956.25;5119621;23;20607;-89
2023/09/23 05:42:31;;;;;;;3.80;1.60;;;;;;;13.20;96.50;97954.69;5118490;23;20650;-89
2023/09/23 05:44:34;;;;;;;2.37;1.40;;;;;;;13.35;95.59;97971.75;5119402;23;20565;-90
2023/09/23 05:46:38;;;;;;;2.20;1.50;;;;;;;13.40;96.20;97980.09;5094885;23;20575;-90
2023/09/23 05:48:41;;;;;;;4.70;1.43;;;;;;;13.52;96.25;97992.19;5120186;23;20650;-89
2023/09/23 05:50:44;;;;;;;2.37;1.00;;;;;;;13.68;95.63;97990.78;5115660;23;20638;-89
2023/09/23 05:52:48;;;;;;;7.97;1.17;;;;;;;13.83;95.80;97998.25;5112760;23;20984;-90
2023/09/23 05:54:51;;;;;;;1.77;1.03;;;;;;;13.94;94.28;97992.13;5113962;23;20571;-89
2023/09/23 05:56:56;;;;;;;1.60;1.10;;;;;;;14.03;94.04;97997.41;5114039;23;20604;-91
2023/09/23 05:58:59;;;;;;;1.73;0.97;;;;;;;14.15;93.28;98001.66;5114799;23;20655;-89
2023/09/23 06:01:02;;;;;;;1.93;1.00;;;;;;;14.24;92.32;98003.53;5087430;23;20676;-89
2023/09/23 06:03:05;;;;;;;2.73;1.20;;;;;;;14.31;92.27;98005.50;5114733;23;20585;-89
2023/09/23 06:05:09;;;;;;;2.23;1.37;;;;;;;14.40;92.18;98007.34;5112050;23;21036;-90
2023/09/23 06:07:13;;;;;;;2.07;1.30;;;;;;;14.45;91.56;98012.19;5089538;23;20919;-89
2023/09/23 06:09:15;;;;;;;2.80;1.90;;;;;;;14.41;91.67;98026.53;5115702;23;21137;-89
2023/09/23 06:11:18;;;;;;;6.63;1.80;;;;;;;14.30;91.35;98022.19;5114673;23;20584;-90
2023/09/23 06:13:23;;;;;;;2.60;1.67;;;;;;;14.33;92.41;98029.81;5113495;23;20893;-90
2023/09/23 06:15:28;;;;;;;2.67;1.83;;;;;;;14.37;94.13;98023.34;5112985;23;20664;-89
2023/09/23 06:17:32;;;;;;;4.30;1.83;;;;;;;14.53;94.28;98030.75;5088044;23;20678;-89
2023/09/23 06:19:36;;;;;;;2.00;1.50;;;;;;;14.68;94.35;98032.91;5089018;23;20693;-91
2023/09/23 06:21:39;;;;;;;2.23;1.47;;;;;;;14.79;94.03;98049.41;5112993;23;20612;-89
2023/09/23 06:23:42;;;;;;;2.47;1.60;;;;;;;14.85;92.93;98045.41;5113401;23;20984;-90
2023/09/23 06:25:52;;;;;;;1.87;1.23;;;;;;;14.91;92.54;98044.88;5112919;23;20667;-89
2023/09/23 06:27:55;;;;;;;3.30;1.57;;;;;;;14.94;91.39;98047.25;5112608;23;20971;-89
2023/09/23 06:30:00;;;;;;;2.43;1.33;;;;;;;14.96;91.69;98053.19;5087483;23;20581;-90
2023/09/23 06:32:04;;;;;;;2.63;1.63;;;;;;;15.09;94.36;98060.72;5087900;23;20582;-88
2023/09/23 06:34:07;;;;;;;3.80;1.40;;;;;;;15.31;93.90;98060.53;5113383;23;20611;-88
2023/09/23 06:36:10;;;;;;;4.60;1.50;;;;;;;15.47;91.96;98060.00;5112533;23;20581;-90
2023/09/23 06:38:13;;;;;;;2.10;1.30;;;;;;;15.59;90.06;98073.75;5113872;23;20596;-89
2023/09/23 06:40:16;;;;;;;3.73;1.40;;;;;;;15.69;90.33;98071.94;5113270;23;20616;-89
2023/09/23 06:42:20;;;;;;;4.07;1.90;;;;;;;15.76;90.07;98069.63;5112946;23;21007;-89
2023/09/23 06:44:23;;;;;;;3.70;2.10;;;;;;;15.84;90.63;98072.38;5113457;23;20613;-89
2023/09/23 06:46:28;;;;;;;3.73;2.50;;;;;;;15.98;89.56;98074.59;5112237;23;20592;-91
2023/09/23 06:48:31;;;;;;;5.37;3.43;;;;;;;16.09;89.91;98075.31;5113057;23;20585;-89
2023/09/23 06:50:34;;;;;;;6.83;4.33;;;;;;;16.22;88.61;98083.78;5113370;23;20600;-89
2023/09/23 06:52:37;;;;;;;8.17;4.43;;;;;;;16.31;88.38;98085.56;5114891;23;20596;-88
2023/09/23 06:54:40;;;;;;;4.60;2.80;;;;;;;16.42;88.01;98088.03;5088821;23;21093;-89
2023/09/23 06:56:43;;;;;;;8.00;3.50;;;;;;;16.54;86.96;98085.97;5136781;23;21092;-89
2023/09/23 06:58:46;;;;;;;5.27;3.23;;;;;;;16.68;89.29;98093.41;5112484;23;20648;-89
2023/09/23 07:00:49;;;;;;;11.77;7.07;;;;;;;16.78;89.04;98107.41;5114619;23;20921;-89
2023/09/23 07:02:53;;;;;;;9.00;5.60;;;;;;;16.99;89.28;98100.97;5112678;23;20633;-89
2023/09/23 07:04:56;;;;;;;9.80;5.73;;;;;;;17.18;88.20;98094.78;5112326;23;20649;-88
2023/09/23 07:06:59;;;;;;;5.03;3.37;;;;;;;17.37;86.77;98108.75;5136639;23;20573;-89
2023/09/23 07:09:04;;;;;;;3.67;2.00;;;;;;;17.47;83.57;98097.19;5117028;23;20617;-96
2023/09/23 07:11:15;;;;;;;5.70;1.87;;;;;;;17.53;83.19;98093.94;5099612;23;20568;-96
2023/09/23 07:13:20;;;;;;;6.67;2.40;;;;;;;17.62;82.48;98090.44;5097146;23;20611;-96
2023/09/23 07:15:24;;;;;;;2.93;1.80;;;;;;;17.68;80.57;98095.13;5093831;23;20584;-96
2023/09/23 07:17:28;;;;;;;3.50;1.90;;;;;;;17.76;83.49;98103.13;5091205;23;20838;-96
2023/09/23 07:19:34;;;;;;;5.47;2.20;;;;;;;17.92;84.67;98110.38;5114829;23;20583;-96
2023/09/23 07:21:37;;;;;;;4.80;1.90;;;;;;;17.98;83.20;98105.31;5089664;23;20635;-95
2023/09/23 07:23:40;;;;;;;2.97;1.90;;;;;;;18.04;83.36;98105.56;5115326;23;20582;-95
2023/09/23 07:25:44;;;;;;;2.57;1.50;;;;;;;18.17;82.61;98107.84;5089760;23;20584;-96
2023/09/23 07:27:47;;;;;;;2.03;1.40;;;;;;;18.29;82.06;98114.56;5114254;23;21094;-96
2023/09/23 07:29:51;;;;;;;1.73;1.20;;;;;;;18.41;82.13;98116.00;5087775;23;20683;-96
2023/09/23 07:31:56;;;;;;;1.97;1.30;;;;;;;18.47;82.25;98122.31;5090438;23;20931;-96
2023/09/23 07:34:00;;;;;;;4.10;1.60;;;;;;;18.51;80.25;98122.88;5090170;23;20632;-96
2023/09/23 07:36:11;;;;;;;1.90;1.33;;;;;;;18.61;80.49;98134.16;5085481;23;21515;-96
2023/09/23 07:38:14;;;;;;;3.13;1.57;;;;;;;18.68;79.61;98138.69;5088530;23;20643;-93
2023/09/23 07:40:18;;;;;;;2.20;1.50;;;;;;;18.81;80.52;98140.91;5082957;23;21414;-92
2023/09/23 07:42:21;;;;;;;1.80;1.30;;;;;;;18.83;80.14;98142.44;5086759;23;20580;-94
2023/09/23 07:44:24;;;;;;;6.00;1.60;;;;;;;18.90;80.39;98151.41;5108416;23;20554;-92
2023/09/23 07:46:28;;;;;;;2.17;1.50;;;;;;;19.00;79.90;98152.13;5088799;23;20589;-93
2023/09/23 07:48:31;;;;;;;1.80;1.20;;;;;;;19.05;79.68;98157.84;5116491;23;21186;-93
2023/09/23 07:50:35;;;;;;;3.37;1.67;;;;;;;19.11;80.36;98155.41;5114591;23;21287;-94
2023/09/23 07:52:39;;;;;;;2.27;1.40;;;;;;;19.25;79.01;98159.28;5089734;23;20589;-95
2023/09/23 07:54:43;;;;;;;1.97;1.47;;;;;;;19.37;80.22;98161.50;5089351;23;20598;-96
2023/09/23 07:56:46;;;;;;;2.33;1.40;;;;;;;19.42;75.83;98157.41;5114447;23;20578;-96
2023/09/23 07:58:50;;;;;;;5.70;2.00;;;;;;;19.51;78.48;98159.06;5090463;23;20907;-95
2023/09/23 08:00:53;;;;;;;2.20;1.30;;;;;;;19.59;78.00;98169.72;5089138;23;20631;-96
2023/09/23 08:02:56;;;;;;;2.00;1.30;;;;;;;19.63;77.21;98173.69;5088869;23;20610;-96
2023/09/23 08:04:59;;;;;;;2.37;1.40;;;;;;;19.59;77.35;98177.66;5113408;23;20598;-96
2023/09/23 08:07:04;;;;;;;6.80;2.30;;;;;;;19.67;77.47;98175.06;5088877;23;20595;-96
2023/09/23 08:09:09;;;;;;;2.67;1.20;;;;;;;19.74;75.90;98180.53;5114265;23;20596;-93
2023/09/23 08:11:12;;;;;;;3.40;1.40;;;;;;;19.93;78.33;98189.09;5113105;23;20641;-93
2023/09/23 08:13:16;;;;;;;1.80;1.10;;;;;;;20.02;76.59;98190.78;5113975;23;21132;-91
2023/09/23 08:15:19;;;;;;;2.50;1.50;;;;;;;20.05;78.81;98199.22;5114485;23;20571;-91
2023/09/23 08:17:22;;;;;;;4.03;1.30;;;;;;;20.13;79.46;98209.03;5110730;23;20581;-90
2023/09/23 08:19:25;;;;;;;1.87;1.13;;;;;;;20.21;73.18;98198.47;5112167;23;21177;-91
2023/09/23 08:21:29;;;;;;;2.53;1.50;;;;;;;20.15;75.26;98199.13;5113485;23;20660;-89
2023/09/23 08:23:32;;;;;;;2.00;1.10;;;;;;;19.84;75.11;98197.94;5089123;23;20575;-90
2023/09/23 08:25:38;;;;;;;1.97;1.00;;;;;;;19.81;76.55;98200.09;5115457;23;20617;-92
2023/09/23 08:27:41;;;;;;;3.07;1.10;;;;;;;19.61;76.11;98191.56;5089367;23;20568;-89
2023/09/23 08:29:44;;;;;;;2.67;1.20;;;;;;;19.75;74.47;98203.38;5111642;23;20659;-89
2023/09/23 08:31:48;;;;;;;3.43;1.00;;;;;;;19.88;76.57;98207.28;5111796;23;20581;-92
2023/09/23 08:33:51;;;;;;;2.00;0.90;;;;;;;19.98;74.66;98200.88;5087704;23;21207;-90
2023/09/23 08:35:54;;;;;;;2.17;1.30;;;;;;;19.80;76.47;98196.63;5089376;23;21332;-89
2023/09/23 08:37:57;;;;;;;2.57;1.10;;;;;;;19.87;76.46;98211.75;5111819;23;20616;-89
2023/09/23 08:40:00;;;;;;;2.00;0.90;;;;;;;20.07;75.77;98207.84;5111494;23;20588;-90
2023/09/23 08:42:05;;;;;;;1.60;0.90;;;;;;;20.18;73.88;98201.44;5108765;23;21324;-91
2023/09/23 08:44:09;;;;;;;2.67;1.00;;;;;;;19.96;73.47;98194.88;5113628;23;20561;-91
2023/09/23 08:46:12;;;;;;;1.80;0.93;;;;;;;19.74;74.25;98197.25;5088917;23;21189;-90
2023/09/23 08:48:16;;;;;;;2.27;1.10;;;;;;;19.76;74.42;98200.56;5088736;23;20592;-89
2023/09/23 08:50:20;;;;;;;1.60;0.87;;;;;;;19.72;73.36;98204.50;5085676;23;20585;-91
2023/09/23 08:52:24;;;;;;;1.83;0.93;;;;;;;19.56;71.99;98193.88;5111258;23;20601;-93
2023/09/23 08:54:28;;;;;;;4.23;1.30;;;;;;;19.64;72.87;98201.00;5084349;23;20584;-91
2023/09/23 08:56:34;;;;;;;2.70;1.03;;;;;;;19.88;74.02;98209.94;5109614;23;20576;-91
2023/09/23 08:58:38;;;;;;;3.60;2.60;;;;;;;20.05;74.33;98209.81;5084149;23;20759;-89
2023/09/23 09:00:46;;;;;;;2.43;1.10;;;;;;;19.96;73.31;98212.59;5111055;23;20908;-89
2023/09/23 09:02:49;;;;;;;5.30;1.10;;;;;;;20.02;73.77;98211.97;5113553;23;20682;-90
2023/09/23 09:04:54;;;;;;;1.70;1.00;;;;;;;20.19;72.24;98208.38;5087243;23;20609;-91
2023/09/23 09:06:58;;;;;;;3.67;0.83;;;;;;;20.18;72.83;98217.34;5106244;23;20962;-89
2023/09/23 09:09:02;;;;;;;2.80;1.20;;;;;;;20.28;72.28;98212.72;5112722;23;20688;-92
2023/09/23 09:11:06;;;;;;;3.70;1.07;;;;;;;20.34;70.01;98220.84;5111935;23;20901;-89
2023/09/23 09:13:09;;;;;;;1.80;0.90;;;;;;;20.45;72.86;98218.72;5112964;23;20585;-90
2023/09/23 09:15:18;;;;;;;4.13;1.50;;;;;;;20.49;71.04;98221.88;5135490;23;20578;-90
2023/09/23 09:17:21;;;;;;;2.00;1.40;;;;;;;20.53;70.51;98218.72;5111856;23;20934;-91
2023/09/23 09:19:25;;;;;;;4.47;3.10;;;;;;;20.54;71.20;98223.06;5088604;23;20965;-90
2023/09/23 09:21:28;;;;;;;2.80;1.50;;;;;;;20.52;70.73;98211.78;5112990;23;21215;-89
2023/09/23 09:23:32;;;;;;;2.30;1.20;;;;;;;20.44;70.88;98209.09;5113367;23;20595;-89
2023/09/23 09:25:36;;;;;;;2.60;1.00;;;;;;;20.38;70.73;98203.63;5112680;23;20582;-91
2023/09/23 09:27:39;;;;;;;3.40;0.90;;;;;;;20.41;71.36;98206.78;5089491;23;20706;-89
2023/09/23 09:29:43;;;;;;;2.50;1.10;;;;;;;20.36;71.94;98214.41;5089123;23;20584;-86
2023/09/23 09:31:49;;;;;;;3.90;1.07;;;;;;;20.34;71.06;98210.22;5086443;23;20674;-85
2023/09/23 09:33:54;;;;;;;1.80;0.90;;;;;;;20.28;71.79;98215.38;5115583;23;20563;-85
2023/09/23 09:35:57;;;;;;;2.40;0.87;;;;;;;20.27;70.84;98219.03;5112159;23;20597;-85
2023/09/23 09:38:06;;;;;;;2.40;0.90;;;;;;;20.14;71.54;98210.69;5089809;23;20661;-86
2023/09/23 09:40:21;;;;;;;2.50;1.20;;;;;;;20.21;71.35;98207.25;5108740;23;21341;-86
2023/09/23 09:42:30;;;;;;;3.03;1.40;;;;;;;20.18;73.10;98207.56;5087320;23;20615;-87
2023/09/23 09:44:35;;;;;;;2.20;0.83;;;;;;;20.14;70.37;98208.03;5088820;23;20638;-87
2023/09/23 09:46:40;;;;;;;1.97;1.00;;;;;;;20.14;70.21;98206.22;5110796;23;20582;-88
2023/09/23 09:48:46;;;;;;;2.47;1.20;;;;;;;20.25;71.28;98205.94;5112575;23;20590;-87
2023/09/23 09:50:51;;;;;;;3.20;1.40;;;;;;;20.34;70.59;98207.59;5108870;23;21103;-88
2023/09/23 09:52:54;;;;;;;2.60;1.03;;;;;;;20.37;69.57;98209.91;5112866;23;21186;-89
2023/09/23 09:54:59;;;;;;;3.43;0.90;;;;;;;20.36;71.70;98206.44;5114700;23;20572;-90
2023/09/23 09:57:07;;;;;;;2.40;0.90;;;;;;;20.36;71.53;98209.09;5116503;23;20613;-90
2023/09/23 09:59:10;;;;;;;1.60;0.90;;;;;;;20.46;72.34;98220.41;5114265;23;21548;-90
2023/09/23 10:01:13;;;;;;;2.37;1.00;;;;;;;20.51;70.58;98228.69;5088614;23;20697;-90
2023/09/23 10:03:16;;;;;;;7.60;1.40;;;;;;;20.52;70.53;98216.25;5116382;23;20617;-90
2023/09/23 10:05:22;;;;;;;6.50;1.63;;;;;;;20.50;69.99;98213.75;5114438;23;20638;-90
2023/09/23 10:07:49;;;;;;;2.40;1.03;;;;;;;20.61;70.42;98217.91;5087008;23;20641;-89
2023/09/23 10:09:53;;;;;;;2.27;0.97;;;;;;;20.74;70.53;98218.31;5087817;23;21133;-88
2023/09/23 10:11:58;;;;;;;3.23;1.00;;;;;;;20.83;70.04;98215.50;5111430;23;20662;-88
2023/09/23 10:14:12;;;;;;;2.33;0.90;;;;;;;20.99;71.55;98221.63;5086168;23;20641;-90
2023/09/23 10:16:17;;;;;;;3.17;1.03;;;;;;;21.16;70.31;98225.13;5114351;23;20574;-89
2023/09/23 10:18:21;;;;;;;8.07;1.40;;;;;;;21.31;70.10;98225.09;5112765;23;20897;-89
2023/09/23 10:20:34;;;;;;;2.67;1.10;;;;;;;21.32;69.46;98221.47;5113251;23;20570;-90
2023/09/23 10:22:36;;;;;;;2.40;1.17;;;;;;;21.10;66.57;98223.13;5109977;23;20717;-90
2023/09/23 10:24:40;;;;;;;2.50;1.10;;;;;;;20.86;67.80;98215.97;5113011;23;20744;-90
2023/09/23 10:26:43;;;;;;;2.23;0.80;;;;;;;20.70;65.59;98220.44;5087864;23;20572;-89
2023/09/23 10:28:57;;;;;;;2.40;1.00;;;;;;;20.39;68.81;98210.59;5113445;23;20586;-84
2023/09/23 10:31:02;;;;;;;3.50;1.10;;;;;;;20.28;69.71;98207.41;5113042;23;20685;-86
2023/09/23 10:33:06;;;;;;;1.70;0.97;;;;;;;20.20;68.55;98218.00;5137220;23;20570;-86
2023/09/23 11:18:18;;;;;;;2.27;1.37;;;;;;;18.42;73.00;98209.13;4158361;27;2012545;-89
2023/09/23 11:20:27;;;;;;;2.90;1.03;;;;;;;18.41;74.56;98209.28;3991152;28;192014;-89
2023/09/23 11:22:31;;;;;;;1.90;0.90;;;;;;;18.47;73.61;98206.84;4197904;28;20642;-89
2023/09/23 11:24:38;;;;;;;1.53;0.90;;;;;;;18.72;74.16;98206.13;4194862;28;20730;-90
2023/09/23 11:26:42;;;;;;;2.23;1.10;;;;;;;18.98;72.83;98207.81;4212111;28;20628;-89
2023/09/23 11:28:45;;;;;;;2.00;1.03;;;;;;;19.15;73.65;98209.63;4194904;28;20637;-89
2023/09/23 11:30:50;;;;;;;2.70;1.10;;;;;;;19.33;72.18;98222.81;4213794;28;20626;-89
2023/09/23 11:32:53;;;;;;;2.90;1.00;;;;;;;19.40;71.41;98219.41;4200528;28;20671;-89
2023/09/23 11:35:00;;;;;;;2.90;1.00;;;;;;;19.33;68.96;98217.53;4233416;28;20803;-90
2023/09/23 11:37:04;;;;;;;3.37;0.97;;;;;;;19.45;70.41;98217.09;4227728;28;20270;-90
2023/09/23 11:39:07;;;;;;;3.30;1.07;;;;;;;19.64;70.92;98224.84;4213909;28;20669;-89
2023/09/23 11:41:10;;;;;;;3.00;1.00;;;;;;;19.82;69.27;98221.13;4212296;28;20623;-89
2023/09/23 11:43:15;;;;;;;2.10;0.97;;;;;;;19.98;71.16;98219.41;4211204;28;20641;-89
2023/09/23 11:45:20;;;;;;;2.23;0.90;;;;;;;20.10;67.02;98225.22;4214350;28;20754;-89
2023/09/23 11:47:23;;;;;;;2.00;1.10;;;;;;;20.10;66.31;98215.50;4213806;28;20643;-90
2023/09/23 11:49:26;;;;;;;1.97;1.00;;;;;;;20.27;68.29;98219.84;4212005;28;20655;-90
2023/09/23 11:51:31;;;;;;;1.97;1.17;;;;;;;20.41;66.48;98214.72;4202285;28;20653;-90
2023/09/23 11:53:35;;;;;;;2.60;1.20;;;;;;;20.56;66.49;98225.53;4212161;28;20671;-90
2023/09/23 11:55:39;;;;;;;3.67;1.10;;;;;;;20.57;68.39;98225.38;4197864;28;20645;-90
2023/09/23 11:57:42;;;;;;;2.93;1.10;;;;;;;20.59;67.76;98223.38;4213233;28;20653;-90
2023/09/23 11:59:46;;;;;;;2.60;1.00;;;;;;;20.56;68.73;98218.41;4205423;28;20638;-90
2023/09/23 12:01:50;;;;;;;2.30;1.00;;;;;;;20.60;67.97;98225.06;4207125;28;21131;-90
2023/09/23 12:03:58;;;;;;;2.27;0.90;;;;;;;20.64;66.28;98222.91;4204749;28;20643;-89
2023/09/23 12:06:02;;;;;;;2.83;1.27;;;;;;;20.64;67.37;98221.09;4186893;28;21347;-90
2023/09/23 12:08:09;;;;;;;1.80;0.83;;;;;;;20.62;66.56;98219.59;4194256;28;20255;-90
2023/09/23 12:10:15;;;;;;;2.80;0.93;;;;;;;20.51;65.89;98225.22;4184575;28;21015;-90
2023/09/23 12:12:18;;;;;;;2.40;1.00;;;;;;;20.42;65.50;98224.34;4197912;28;20685;-90
2023/09/23 12:14:22;;;;;;;6.40;0.93;;;;;;;20.36;66.27;98224.19;4197881;28;20793;-90
2023/09/23 12:16:25;;;;;;;2.90;0.97;;;;;;;20.41;68.12;98230.63;4193066;28;21199;-89
2023/09/23 12:18:28;;;;;;;2.20;1.00;;;;;;;20.45;65.46;98226.69;4180660;28;20687;-90
2023/09/23 12:20:31;;;;;;;3.50;1.10;;;;;;;20.39;65.95;98224.66;4176992;28;20641;-90
2023/09/23 12:22:35;;;;;;;3.83;1.00;;;;;;;20.43;65.58;98223.38;4182710;28;20645;-90
2023/09/23 12:24:41;;;;;;;3.50;1.27;;;;;;;20.45;67.40;98225.84;4195195;28;20697;-90
2023/09/23 12:26:45;;;;;;;3.03;1.00;;;;;;;20.43;67.97;98228.66;4199298;28;20626;-89
2023/09/23 12:28:48;;;;;;;5.50;2.93;;;;;;;20.48;68.40;98234.31;4177670;28;20639;-89
2023/09/23 12:30:51;;;;;;;2.67;1.00;;;;;;;20.51;65.93;98233.97;4186900;28;20736;-89
2023/09/23 12:32:54;;;;;;;4.73;0.90;;;;;;;20.45;64.55;98229.31;4187458;28;20712;-90
2023/09/23 12:34:58;;;;;;;2.27;1.00;;;;;;;20.49;65.27;98232.47;4202079;28;20648;-88
2023/09/23 12:37:01;;;;;;;1.80;0.87;;;;;;;20.60;65.55;98240.13;4182140;28;20958;-89
2023/09/23 12:39:04;;;;;;;2.70;0.90;;;;;;;20.69;65.04;98233.88;4183447;28;21110;-88
2023/09/23 12:41:09;;;;;;;2.40;0.87;;;;;;;20.69;64.55;98234.72;4185703;28;20724;-91
2023/09/23 12:43:12;;;;;;;2.57;1.10;;;;;;;20.65;63.89;98230.69;4196204;28;21008;-88
2023/09/23 12:45:15;;;;;;;2.70;0.90;;;;;;;20.63;63.58;98235.34;4190333;28;20731;-91
2023/09/23 12:47:18;;;;;;;2.57;0.93;;;;;;;20.67;63.51;98234.03;4182715;28;20635;-91